Market Drayton, United Kingdom
Current Conditions -  °F | °C
As of 8:50 PM on Wednesday 26 Nov 2014 (Local Time) from EGOS Reporting Station
Overcast Overcast  
Wind Chill: 45°   Ceiling: 600
Heat Index: 45°   Visibility: 0.87mi
Dew Point: 45°   Wind: 1mph
Humidity: 100%   Direction: 340°NNW
Pressure: 29.77"   Gusts: NA
Location:  52.91°N, 2.49°W
Report Text: EGOS 262050Z AUTO 34001KT 1400 OVC006/// 07/07 Q1008
Loading
Personal Weather Stations






























Interactive Weather Map New forecast layout! Learn more

10-Day Weather Forecast

Advertisements
Track Severe Weather on mobile